Crayne, Kentucky
Current Conditions -  °F | °C
As of 9:55 AM on Thursday 23 Oct 2014 (Local Time) from K5M9 Reporting Station
Clear Clear  
Wind Chill: 52°   Ceiling: Unl
Heat Index: 52°   Visibility: 10mi
Dew Point: 44°   Wind: 3mph
Humidity: 73%   Direction: 110°ESE
Pressure: 30.25"   Gusts: NA
Location:  37.27°N, 88.08°W
Report Text: K5M9 231455Z AUTO 11003KT 10SM CLR 11/06 A3025 RMK AO2 T01100064
Loading
Personal Weather Stations






























Interactive Weather Map
Tropical Storm Tracking
New forecast layout! Learn more

10-Day Weather Forecast

Advertisements
Track Severe Weather on mobile